createdAt,value
2022-09-01T00:18:09.073Z,98494.03
2022-09-01T00:38:11.710Z,98491.84
2022-09-01T00:58:19.933Z,98482.09
2022-09-01T01:18:23.790Z,98474.56
2022-09-01T01:38:26.434Z,98486.44
2022-09-01T01:58:30.378Z,98485.00
2022-09-01T02:18:35.915Z,98461.59
2022-09-01T02:38:38.987Z,98455.94
2022-09-01T02:58:47.399Z,98450.16
2022-09-01T03:18:50.756Z,98445.22
2022-09-01T03:38:53.211Z,98453.19
2022-09-01T03:58:55.891Z,98466.94
2022-09-01T04:19:01.550Z,98464.44
2022-09-01T04:39:11.802Z,98468.50
2022-09-01T04:59:14.638Z,98468.31
2022-09-01T05:19:18.746Z,98482.31
2022-09-01T05:39:22.119Z,98473.97
2022-09-01T05:59:26.112Z,98471.72
2022-09-01T06:19:33.574Z,98477.37
2022-09-01T06:39:39.183Z,98490.16
2022-09-01T06:59:41.887Z,98503.62
2022-09-01T07:19:49.543Z,98509.44
2022-09-01T07:39:52.433Z,98517.88
2022-09-01T07:59:57.546Z,98526.44
2022-09-01T08:20:00.204Z,98540.88
2022-09-01T08:40:04.061Z,98536.56
2022-09-01T09:00:06.811Z,98530.47
2022-09-01T09:20:12.270Z,98523.91
2022-09-01T09:40:18.406Z,98514.31
2022-09-01T10:00:23.886Z,98526.19
2022-09-01T10:20:27.462Z,98514.34
2022-09-01T10:40:31.399Z,98516.91
2022-09-01T11:00:36.827Z,98506.91
2022-09-01T11:20:39.771Z,98498.84
2022-09-01T11:40:42.480Z,98492.34
2022-09-01T12:00:45.135Z,98494.41
2022-09-01T12:40:50.671Z,98471.91
2022-09-01T13:00:53.394Z,98478.34
2022-09-01T13:20:56.235Z,98475.38
2022-09-01T13:40:58.882Z,98470.41
2022-09-01T14:01:01.465Z,98471.50
2022-09-01T14:21:04.050Z,98467.22
2022-09-01T14:41:06.486Z,98468.59
2022-09-01T15:01:32.801Z,98469.84
2022-09-01T15:21:35.058Z,98453.28
2022-09-01T15:41:37.754Z,98464.25
2022-09-01T16:01:40.521Z,98459.19
2022-09-01T16:21:43.210Z,98460.94
2022-09-01T16:41:45.959Z,98477.06
2022-09-01T17:01:48.907Z,98485.69
2022-09-01T17:21:55.078Z,98494.47
2022-09-01T17:41:57.640Z,98504.53
2022-09-01T18:02:00.462Z,98509.91
2022-09-01T18:22:03.616Z,98528.97
2022-09-01T18:42:06.294Z,98548.91
2022-09-01T19:02:08.886Z,98563.16
2022-09-01T19:22:12.193Z,98566.88
2022-09-01T19:42:14.645Z,98578.50
2022-09-01T20:02:18.331Z,98589.72
2022-09-01T20:22:20.786Z,98587.53
2022-09-01T20:42:23.298Z,98595.59
2022-09-01T21:02:25.954Z,98588.22
2022-09-01T21:22:28.459Z,98590.41
2022-09-01T21:42:30.998Z,98601.91
2022-09-01T22:02:35.125Z,98610.59
2022-09-01T22:22:37.686Z,98601.00
2022-09-01T22:42:40.150Z,98601.56
2022-09-01T23:02:42.899Z,98597.22
2022-09-01T23:22:45.582Z,98595.34
2022-09-01T23:42:48.051Z,98601.38
